Hotevilla, Arizona
Current Conditions -  °F | °C
As of 4:56 PM on Friday 19 Dec 2014 (Local Time) from KINW Reporting Station
Clear Clear  
Wind Chill:   Ceiling: Unl
Heat Index:   Visibility: 10mi
Dew Point:   Wind: 7mph
Humidity: 73%   Direction: 70°ENE
Pressure: 30.22"   Gusts: NA
Location:  35.93°N, 110.67°W
Report Text: KINW 192356Z AUTO 07006KT 10SM CLR 04/00 A3022 RMK AO2 SLP247 T00440000 10061 20006 55001
Loading
Personal Weather Stations






























Interactive Weather Map New forecast layout! Learn more

10-Day Weather Forecast

Advertisements
Track Severe Weather on mobile